sensor_id;sensor_type;location;lat;lon;timestamp;temperature;humidity
76613;DHT22;65507;48.454;-2.058;2023-11-22T00:01:22;11.50;90.20
76613;DHT22;65507;48.454;-2.058;2023-11-22T00:03:47;11.50;90.20
76613;DHT22;65507;48.454;-2.058;2023-11-22T00:06:13;11.50;90.20
76613;DHT22;65507;48.454;-2.058;2023-11-22T00:08:39;11.50;90.20
76613;DHT22;65507;48.454;-2.058;2023-11-22T00:11:04;11.50;90.10
76613;DHT22;65507;48.454;-2.058;2023-11-22T00:13:30;11.50;90.10
76613;DHT22;65507;48.454;-2.058;2023-11-22T00:15:57;11.50;90.10
76613;DHT22;65507;48.454;-2.058;2023-11-22T00:18:23;11.50;90.10
76613;DHT22;65507;48.454;-2.058;2023-11-22T00:20:50;11.40;90.50
76613;DHT22;65507;48.454;-2.058;2023-11-22T00:23:15;11.40;90.00
76613;DHT22;65507;48.454;-2.058;2023-11-22T00:25:41;11.40;90.10
76613;DHT22;65507;48.454;-2.058;2023-11-22T00:28:07;11.40;90.10
76613;DHT22;65507;48.454;-2.058;2023-11-22T00:30:32;11.40;90.10
76613;DHT22;65507;48.454;-2.058;2023-11-22T00:32:58;11.40;90.00
76613;DHT22;65507;48.454;-2.058;2023-11-22T00:35:24;11.40;90.00
76613;DHT22;65507;48.454;-2.058;2023-11-22T00:37:50;11.30;90.00
76613;DHT22;65507;48.454;-2.058;2023-11-22T00:40:15;11.40;90.00
76613;DHT22;65507;48.454;-2.058;2023-11-22T00:42:41;11.40;89.90
76613;DHT22;65507;48.454;-2.058;2023-11-22T00:45:08;11.50;89.90
76613;DHT22;65507;48.454;-2.058;2023-11-22T00:47:35;12.20;90.10
76613;DHT22;65507;48.454;-2.058;2023-11-22T00:50:01;11.50;89.80
76613;DHT22;65507;48.454;-2.058;2023-11-22T00:52:30;11.50;90.30
76613;DHT22;65507;48.454;-2.058;2023-11-22T00:54:56;11.50;89.70
76613;DHT22;65507;48.454;-2.058;2023-11-22T00:57:21;11.50;89.70
76613;DHT22;65507;48.454;-2.058;2023-11-22T00:59:47;11.50;89.70
76613;DHT22;65507;48.454;-2.058;2023-11-22T01:02:13;11.50;89.60
76613;DHT22;65507;48.454;-2.058;2023-11-22T01:04:39;11.50;89.60
76613;DHT22;65507;48.454;-2.058;2023-11-22T01:07:05;11.50;89.60
76613;DHT22;65507;48.454;-2.058;2023-11-22T01:09:34;11.50;89.60
76613;DHT22;65507;48.454;-2.058;2023-11-22T01:12:00;11.50;89.50
76613;DHT22;65507;48.454;-2.058;2023-11-22T01:14:26;11.50;89.60
76613;DHT22;65507;48.454;-2.058;2023-11-22T01:16:53;11.50;89.50
76613;DHT22;65507;48.454;-2.058;2023-11-22T01:19:20;11.50;89.50
76613;DHT22;65507;48.454;-2.058;2023-11-22T01:21:46;11.50;89.50
76613;DHT22;65507;48.454;-2.058;2023-11-22T01:24:12;11.40;89.50
76613;DHT22;65507;48.454;-2.058;2023-11-22T01:26:38;11.50;90.20
76613;DHT22;65507;48.454;-2.058;2023-11-22T01:29:06;11.50;89.60
76613;DHT22;65507;48.454;-2.058;2023-11-22T01:31:32;11.50;89.60
76613;DHT22;65507;48.454;-2.058;2023-11-22T01:33:58;11.50;89.50
76613;DHT22;65507;48.454;-2.058;2023-11-22T01:36:24;11.50;89.40
76613;DHT22;65507;48.454;-2.058;2023-11-22T01:38:51;11.50;89.50
76613;DHT22;65507;48.454;-2.058;2023-11-22T01:41:17;11.50;89.40
76613;DHT22;65507;48.454;-2.058;2023-11-22T01:43:43;11.60;89.40
76613;DHT22;65507;48.454;-2.058;2023-11-22T01:46:11;11.60;89.40
76613;DHT22;65507;48.454;-2.058;2023-11-22T01:48:41;11.60;89.30
76613;DHT22;65507;48.454;-2.058;2023-11-22T01:51:06;11.60;89.30
76613;DHT22;65507;48.454;-2.058;2023-11-22T01:53:34;11.60;89.30
76613;DHT22;65507;48.454;-2.058;2023-11-22T01:56:00;11.60;89.30
76613;DHT22;65507;48.454;-2.058;2023-11-22T01:58:27;11.60;89.20
76613;DHT22;65507;48.454;-2.058;2023-11-22T02:00:53;11.60;89.20
76613;DHT22;65507;48.454;-2.058;2023-11-22T02:03:18;11.60;89.10
76613;DHT22;65507;48.454;-2.058;2023-11-22T02:05:44;11.60;89.10
76613;DHT22;65507;48.454;-2.058;2023-11-22T02:08:11;11.60;89.00
76613;DHT22;65507;48.454;-2.058;2023-11-22T02:10:37;11.60;89.00
76613;DHT22;65507;48.454;-2.058;2023-11-22T02:13:04;11.60;89.00
76613;DHT22;65507;48.454;-2.058;2023-11-22T02:15:31;11.60;88.90
76613;DHT22;65507;48.454;-2.058;2023-11-22T02:17:57;11.60;88.90
76613;DHT22;65507;48.454;-2.058;2023-11-22T02:20:23;11.60;88.80
76613;DHT22;65507;48.454;-2.058;2023-11-22T02:22:48;11.60;88.80
76613;DHT22;65507;48.454;-2.058;2023-11-22T02:25:15;11.60;88.80
76613;DHT22;65507;48.454;-2.058;2023-11-22T02:27:41;11.60;88.70
76613;DHT22;65507;48.454;-2.058;2023-11-22T02:30:08;11.60;88.70
76613;DHT22;65507;48.454;-2.058;2023-11-22T02:32:34;11.60;88.70
76613;DHT22;65507;48.454;-2.058;2023-11-22T02:34:59;11.60;88.70
76613;DHT22;65507;48.454;-2.058;2023-11-22T02:37:26;11.60;88.70
76613;DHT22;65507;48.454;-2.058;2023-11-22T02:40:20;11.60;88.80
76613;DHT22;65507;48.454;-2.058;2023-11-22T02:42:46;11.60;88.70
76613;DHT22;65507;48.454;-2.058;2023-11-22T02:45:13;11.60;88.80
76613;DHT22;65507;48.454;-2.058;2023-11-22T02:47:39;11.60;88.80
76613;DHT22;65507;48.454;-2.058;2023-11-22T02:50:06;11.60;88.70
76613;DHT22;65507;48.454;-2.058;2023-11-22T02:52:32;11.60;88.70
76613;DHT22;65507;48.454;-2.058;2023-11-22T02:54:58;11.50;88.70
76613;DHT22;65507;48.454;-2.058;2023-11-22T02:57:24;11.50;88.70
76613;DHT22;65507;48.454;-2.058;2023-11-22T02:59:50;11.50;88.80
76613;DHT22;65507;48.454;-2.058;2023-11-22T03:02:15;11.50;88.80
76613;DHT22;65507;48.454;-2.058;2023-11-22T03:04:44;11.50;88.70
76613;DHT22;65507;48.454;-2.058;2023-11-22T03:07:10;11.50;88.70
76613;DHT22;65507;48.454;-2.058;2023-11-22T03:09:36;11.50;88.70
76613;DHT22;65507;48.454;-2.058;2023-11-22T03:12:03;11.50;88.70
76613;DHT22;65507;48.454;-2.058;2023-11-22T03:14:28;11.60;88.60
76613;DHT22;65507;48.454;-2.058;2023-11-22T03:16:55;11.60;88.60
76613;DHT22;65507;48.454;-2.058;2023-11-22T03:19:20;11.60;88.50
76613;DHT22;65507;48.454;-2.058;2023-11-22T03:21:46;11.60;88.50
76613;DHT22;65507;48.454;-2.058;2023-11-22T03:24:12;11.60;88.40
76613;DHT22;65507;48.454;-2.058;2023-11-22T03:26:38;11.60;88.40
76613;DHT22;65507;48.454;-2.058;2023-11-22T03:29:04;11.60;88.30
76613;DHT22;65507;48.454;-2.058;2023-11-22T03:31:30;11.60;88.30
76613;DHT22;65507;48.454;-2.058;2023-11-22T03:33:56;11.60;88.30
76613;DHT22;65507;48.454;-2.058;2023-11-22T03:36:22;11.50;88.20
76613;DHT22;65507;48.454;-2.058;2023-11-22T03:38:48;11.50;88.30
76613;DHT22;65507;48.454;-2.058;2023-11-22T03:41:14;11.50;88.40
76613;DHT22;65507;48.454;-2.058;2023-11-22T03:43:40;11.50;88.30
76613;DHT22;65507;48.454;-2.058;2023-11-22T03:46:06;11.50;88.30
76613;DHT22;65507;48.454;-2.058;2023-11-22T03:48:31;11.50;88.20
76613;DHT22;65507;48.454;-2.058;2023-11-22T03:50:57;11.50;88.30
76613;DHT22;65507;48.454;-2.058;2023-11-22T03:53:23;11.50;88.10
76613;DHT22;65507;48.454;-2.058;2023-11-22T03:55:52;11.50;88.00
76613;DHT22;65507;48.454;-2.058;2023-11-22T03:58:18;11.50;88.00
76613;DHT22;65507;48.454;-2.058;2023-11-22T04:00:44;11.50;88.10
76613;DHT22;65507;48.454;-2.058;2023-11-22T04:03:09;11.60;87.90
76613;DHT22;65507;48.454;-2.058;2023-11-22T04:05:35;11.60;87.80
76613;DHT22;65507;48.454;-2.058;2023-11-22T04:08:01;11.60;87.80
76613;DHT22;65507;48.454;-2.058;2023-11-22T04:10:26;11.50;87.70
76613;DHT22;65507;48.454;-2.058;2023-11-22T04:12:52;11.60;87.70
76613;DHT22;65507;48.454;-2.058;2023-11-22T04:15:18;11.60;87.70
76613;DHT22;65507;48.454;-2.058;2023-11-22T04:17:43;11.60;87.60
76613;DHT22;65507;48.454;-2.058;2023-11-22T04:20:09;11.60;87.50
76613;DHT22;65507;48.454;-2.058;2023-11-22T04:22:44;11.60;87.40
76613;DHT22;65507;48.454;-2.058;2023-11-22T04:25:11;11.60;87.40
76613;DHT22;65507;48.454;-2.058;2023-11-22T04:27:40;11.60;87.40
76613;DHT22;65507;48.454;-2.058;2023-11-22T04:33:09;11.60;87.30
76613;DHT22;65507;48.454;-2.058;2023-11-22T04:35:35;11.60;87.40
76613;DHT22;65507;48.454;-2.058;2023-11-22T04:38:03;11.60;87.30
76613;DHT22;65507;48.454;-2.058;2023-11-22T04:40:29;11.60;87.20
76613;DHT22;65507;48.454;-2.058;2023-11-22T04:42:55;11.60;87.10
76613;DHT22;65507;48.454;-2.058;2023-11-22T04:45:21;11.60;87.10
76613;DHT22;65507;48.454;-2.058;2023-11-22T04:47:47;11.60;87.00
76613;DHT22;65507;48.454;-2.058;2023-11-22T04:50:12;11.60;87.00
76613;DHT22;65507;48.454;-2.058;2023-11-22T04:52:38;11.60;86.90
76613;DHT22;65507;48.454;-2.058;2023-11-22T04:55:05;11.60;86.90
76613;DHT22;65507;48.454;-2.058;2023-11-22T04:57:31;11.50;87.70
76613;DHT22;65507;48.454;-2.058;2023-11-22T04:59:56;11.50;87.00
76613;DHT22;65507;48.454;-2.058;2023-11-22T05:02:22;11.50;87.00
76613;DHT22;65507;48.454;-2.058;2023-11-22T05:04:48;11.50;86.90
76613;DHT22;65507;48.454;-2.058;2023-11-22T05:07:15;11.50;86.90
76613;DHT22;65507;48.454;-2.058;2023-11-22T05:09:41;11.50;86.90
76613;DHT22;65507;48.454;-2.058;2023-11-22T05:12:09;11.40;86.80
76613;DHT22;65507;48.454;-2.058;2023-11-22T05:14:35;11.40;86.80
76613;DHT22;65507;48.454;-2.058;2023-11-22T05:17:01;11.40;86.80
76613;DHT22;65507;48.454;-2.058;2023-11-22T05:19:27;11.40;86.80
76613;DHT22;65507;48.454;-2.058;2023-11-22T05:21:53;11.40;86.80
76613;DHT22;65507;48.454;-2.058;2023-11-22T05:24:18;11.40;86.50
76613;DHT22;65507;48.454;-2.058;2023-11-22T05:26:45;11.40;86.50
76613;DHT22;65507;48.454;-2.058;2023-11-22T05:29:10;11.40;86.40
76613;DHT22;65507;48.454;-2.058;2023-11-22T05:31:36;11.40;86.60
76613;DHT22;65507;48.454;-2.058;2023-11-22T05:34:02;11.40;86.40
76613;DHT22;65507;48.454;-2.058;2023-11-22T05:36:29;11.40;86.50
76613;DHT22;65507;48.454;-2.058;2023-11-22T05:38:55;11.40;86.40
76613;DHT22;65507;48.454;-2.058;2023-11-22T05:41:24;11.40;86.20
76613;DHT22;65507;48.454;-2.058;2023-11-22T05:43:51;11.40;86.10
76613;DHT22;65507;48.454;-2.058;2023-11-22T05:46:18;11.40;86.10
76613;DHT22;65507;48.454;-2.058;2023-11-22T05:48:47;11.50;86.00
76613;DHT22;65507;48.454;-2.058;2023-11-22T05:51:14;11.50;86.00
76613;DHT22;65507;48.454;-2.058;2023-11-22T05:53:40;11.50;85.90
76613;DHT22;65507;48.454;-2.058;2023-11-22T05:56:06;11.50;85.80
76613;DHT22;65507;48.454;-2.058;2023-11-22T05:58:37;11.50;85.70
76613;DHT22;65507;48.454;-2.058;2023-11-22T06:01:09;11.50;85.60
76613;DHT22;65507;48.454;-2.058;2023-11-22T06:03:35;11.50;85.70
76613;DHT22;65507;48.454;-2.058;2023-11-22T06:06:01;11.50;85.70
76613;DHT22;65507;48.454;-2.058;2023-11-22T06:08:28;11.50;85.60
76613;DHT22;65507;48.454;-2.058;2023-11-22T06:10:54;11.40;85.50
76613;DHT22;65507;48.454;-2.058;2023-11-22T06:13:22;11.40;85.60
76613;DHT22;65507;48.454;-2.058;2023-11-22T06:15:48;11.40;85.50
76613;DHT22;65507;48.454;-2.058;2023-11-22T06:18:13;11.40;85.50
76613;DHT22;65507;48.454;-2.058;2023-11-22T06:20:41;11.40;85.50
76613;DHT22;65507;48.454;-2.058;2023-11-22T06:23:06;11.50;85.50
76613;DHT22;65507;48.454;-2.058;2023-11-22T06:25:32;11.40;85.40
76613;DHT22;65507;48.454;-2.058;2023-11-22T06:27:58;11.50;85.50
76613;DHT22;65507;48.454;-2.058;2023-11-22T06:30:24;11.50;85.40
76613;DHT22;65507;48.454;-2.058;2023-11-22T06:32:51;11.50;85.40
76613;DHT22;65507;48.454;-2.058;2023-11-22T06:35:17;11.50;85.40
76613;DHT22;65507;48.454;-2.058;2023-11-22T06:37:43;11.40;85.30
76613;DHT22;65507;48.454;-2.058;2023-11-22T06:40:11;11.40;85.30
76613;DHT22;65507;48.454;-2.058;2023-11-22T06:42:38;11.40;85.30
76613;DHT22;65507;48.454;-2.058;2023-11-22T06:45:05;11.40;85.30
76613;DHT22;65507;48.454;-2.058;2023-11-22T06:47:35;11.40;85.30
76613;DHT22;65507;48.454;-2.058;2023-11-22T06:50:02;11.40;85.30
76613;DHT22;65507;48.454;-2.058;2023-11-22T06:52:29;11.40;85.30
76613;DHT22;65507;48.454;-2.058;2023-11-22T06:54:55;11.40;85.30
76613;DHT22;65507;48.454;-2.058;2023-11-22T06:57:21;11.30;85.30
76613;DHT22;65507;48.454;-2.058;2023-11-22T06:59:54;11.30;85.20
76613;DHT22;65507;48.454;-2.058;2023-11-22T07:02:19;11.30;85.20
76613;DHT22;65507;48.454;-2.058;2023-11-22T07:04:45;11.20;85.30
76613;DHT22;65507;48.454;-2.058;2023-11-22T07:07:11;11.20;85.40
76613;DHT22;65507;48.454;-2.058;2023-11-22T07:09:36;11.20;85.40
76613;DHT22;65507;48.454;-2.058;2023-11-22T07:12:02;11.10;85.60
76613;DHT22;65507;48.454;-2.058;2023-11-22T07:14:31;11.10;85.60
76613;DHT22;65507;48.454;-2.058;2023-11-22T07:16:57;11.00;85.70
76613;DHT22;65507;48.454;-2.058;2023-11-22T07:19:23;11.00;85.90
76613;DHT22;65507;48.454;-2.058;2023-11-22T07:21:49;10.90;85.90
76613;DHT22;65507;48.454;-2.058;2023-11-22T07:24:14;10.90;85.70
76613;DHT22;65507;48.454;-2.058;2023-11-22T07:26:41;10.80;85.80
76613;DHT22;65507;48.454;-2.058;2023-11-22T07:29:10;10.80;85.80
76613;DHT22;65507;48.454;-2.058;2023-11-22T07:31:37;10.80;85.80
76613;DHT22;65507;48.454;-2.058;2023-11-22T07:34:03;10.80;85.90
76613;DHT22;65507;48.454;-2.058;2023-11-22T07:36:29;10.80;85.90
76613;DHT22;65507;48.454;-2.058;2023-11-22T07:38:56;10.70;86.00
76613;DHT22;65507;48.454;-2.058;2023-11-22T07:41:22;10.70;86.10
76613;DHT22;65507;48.454;-2.058;2023-11-22T07:43:48;10.60;86.10
76613;DHT22;65507;48.454;-2.058;2023-11-22T07:46:15;10.60;86.10
76613;DHT22;65507;48.454;-2.058;2023-11-22T07:48:42;10.60;86.10
76613;DHT22;65507;48.454;-2.058;2023-11-22T07:51:08;10.60;86.00
76613;DHT22;65507;48.454;-2.058;2023-11-22T07:53:34;10.60;86.00
76613;DHT22;65507;48.454;-2.058;2023-11-22T07:56:03;10.60;85.90
76613;DHT22;65507;48.454;-2.058;2023-11-22T07:58:30;10.70;85.90
76613;DHT22;65507;48.454;-2.058;2023-11-22T08:00:58;10.70;85.80
76613;DHT22;65507;48.454;-2.058;2023-11-22T08:03:23;10.80;85.70
76613;DHT22;65507;48.454;-2.058;2023-11-22T08:05:51;10.80;85.70
76613;DHT22;65507;48.454;-2.058;2023-11-22T08:08:20;10.80;85.60
76613;DHT22;65507;48.454;-2.058;2023-11-22T08:10:46;10.70;85.60
76613;DHT22;65507;48.454;-2.058;2023-11-22T08:13:14;10.70;85.60
76613;DHT22;65507;48.454;-2.058;2023-11-22T08:15:41;10.80;85.70
76613;DHT22;65507;48.454;-2.058;2023-11-22T08:18:07;10.80;85.70
76613;DHT22;65507;48.454;-2.058;2023-11-22T08:20:33;10.80;85.60
76613;DHT22;65507;48.454;-2.058;2023-11-22T08:22:58;10.90;85.60
76613;DHT22;65507;48.454;-2.058;2023-11-22T08:25:24;10.90;85.50
76613;DHT22;65507;48.454;-2.058;2023-11-22T08:27:50;11.00;85.30
76613;DHT22;65507;48.454;-2.058;2023-11-22T08:30:16;11.10;85.20
76613;DHT22;65507;48.454;-2.058;2023-11-22T08:32:44;11.10;84.90
76613;DHT22;65507;48.454;-2.058;2023-11-22T08:35:12;11.20;84.80
76613;DHT22;65507;48.454;-2.058;2023-11-22T08:37:40;11.30;84.60
76613;DHT22;65507;48.454;-2.058;2023-11-22T08:40:07;11.40;84.50
76613;DHT22;65507;48.454;-2.058;2023-11-22T08:42:34;11.50;84.30
76613;DHT22;65507;48.454;-2.058;2023-11-22T08:45:01;11.60;84.10
76613;DHT22;65507;48.454;-2.058;2023-11-22T08:47:27;11.70;84.10
76613;DHT22;65507;48.454;-2.058;2023-11-22T08:49:53;11.70;84.10
76613;DHT22;65507;48.454;-2.058;2023-11-22T08:52:18;11.80;83.90
76613;DHT22;65507;48.454;-2.058;2023-11-22T08:54:45;11.80;83.90
76613;DHT22;65507;48.454;-2.058;2023-11-22T08:57:11;11.90;83.70
76613;DHT22;65507;48.454;-2.058;2023-11-22T08:59:37;11.90;83.70
76613;DHT22;65507;48.454;-2.058;2023-11-22T09:02:04;11.90;83.70
76613;DHT22;65507;48.454;-2.058;2023-11-22T09:04:30;12.00;83.80
76613;DHT22;65507;48.454;-2.058;2023-11-22T09:06:57;12.00;83.80
76613;DHT22;65507;48.454;-2.058;2023-11-22T09:09:23;12.00;83.80
76613;DHT22;65507;48.454;-2.058;2023-11-22T09:11:57;12.00;84.00
76613;DHT22;65507;48.454;-2.058;2023-11-22T09:14:22;12.00;84.00
76613;DHT22;65507;48.454;-2.058;2023-11-22T09:16:50;12.00;83.90
76613;DHT22;65507;48.454;-2.058;2023-11-22T09:19:23;12.00;83.80
76613;DHT22;65507;48.454;-2.058;2023-11-22T09:21:50;12.10;83.90
76613;DHT22;65507;48.454;-2.058;2023-11-22T09:24:17;12.10;83.80
76613;DHT22;65507;48.454;-2.058;2023-11-22T09:26:42;12.10;83.80
76613;DHT22;65507;48.454;-2.058;2023-11-22T09:29:09;12.10;83.70
76613;DHT22;65507;48.454;-2.058;2023-11-22T09:31:39;12.20;83.70
76613;DHT22;65507;48.454;-2.058;2023-11-22T09:34:05;12.20;83.80
76613;DHT22;65507;48.454;-2.058;2023-11-22T09:36:30;12.20;83.80
76613;DHT22;65507;48.454;-2.058;2023-11-22T09:38:59;12.20;83.70
76613;DHT22;65507;48.454;-2.058;2023-11-22T09:41:25;12.10;83.70
76613;DHT22;65507;48.454;-2.058;2023-11-22T09:43:53;12.10;83.80
76613;DHT22;65507;48.454;-2.058;2023-11-22T09:46:19;12.10;83.90
76613;DHT22;65507;48.454;-2.058;2023-11-22T09:48:48;12.10;83.90
76613;DHT22;65507;48.454;-2.058;2023-11-22T09:51:27;12.10;83.90
76613;DHT22;65507;48.454;-2.058;2023-11-22T09:53:58;12.20;83.80
76613;DHT22;65507;48.454;-2.058;2023-11-22T09:56:30;12.20;83.90
76613;DHT22;65507;48.454;-2.058;2023-11-22T09:58:59;12.20;83.80
76613;DHT22;65507;48.454;-2.058;2023-11-22T10:01:27;12.20;83.70
76613;DHT22;65507;48.454;-2.058;2023-11-22T10:04:02;12.20;83.60
76613;DHT22;65507;48.454;-2.058;2023-11-22T10:06:28;12.30;83.60
76613;DHT22;65507;48.454;-2.058;2023-11-22T10:08:58;12.40;83.50
76613;DHT22;65507;48.454;-2.058;2023-11-22T10:11:25;12.50;83.30
76613;DHT22;65507;48.454;-2.058;2023-11-22T10:13:51;12.40;83.10
76613;DHT22;65507;48.454;-2.058;2023-11-22T10:16:18;12.50;83.10
76613;DHT22;65507;48.454;-2.058;2023-11-22T10:18:46;12.50;82.90
76613;DHT22;65507;48.454;-2.058;2023-11-22T10:21:22;12.50;83.00
76613;DHT22;65507;48.454;-2.058;2023-11-22T10:23:48;12.50;82.80
76613;DHT22;65507;48.454;-2.058;2023-11-22T10:26:14;12.60;82.90
76613;DHT22;65507;48.454;-2.058;2023-11-22T10:28:43;12.60;82.60
76613;DHT22;65507;48.454;-2.058;2023-11-22T10:31:09;12.60;82.40
76613;DHT22;65507;48.454;-2.058;2023-11-22T10:33:44;12.70;82.40
76613;DHT22;65507;48.454;-2.058;2023-11-22T10:36:10;12.80;82.50
76613;DHT22;65507;48.454;-2.058;2023-11-22T10:38:37;12.80;82.30
76613;DHT22;65507;48.454;-2.058;2023-11-22T10:41:04;12.80;82.00
76613;DHT22;65507;48.454;-2.058;2023-11-22T10:43:30;12.80;82.10
76613;DHT22;65507;48.454;-2.058;2023-11-22T10:45:59;12.80;82.00
76613;DHT22;65507;48.454;-2.058;2023-11-22T10:48:26;12.80;81.90
76613;DHT22;65507;48.454;-2.058;2023-11-22T10:50:53;12.70;81.80
76613;DHT22;65507;48.454;-2.058;2023-11-22T10:53:21;12.70;81.70
76613;DHT22;65507;48.454;-2.058;2023-11-22T10:55:56;12.70;81.80
76613;DHT22;65507;48.454;-2.058;2023-11-22T10:58:23;12.80;81.80
76613;DHT22;65507;48.454;-2.058;2023-11-22T11:00:51;12.90;81.70
76613;DHT22;65507;48.454;-2.058;2023-11-22T11:03:20;12.90;81.40
76613;DHT22;65507;48.454;-2.058;2023-11-22T11:06:02;12.90;81.20
76613;DHT22;65507;48.454;-2.058;2023-11-22T11:08:32;13.00;81.00
76613;DHT22;65507;48.454;-2.058;2023-11-22T11:11:00;13.00;81.00
76613;DHT22;65507;48.454;-2.058;2023-11-22T11:13:28;13.00;80.90
76613;DHT22;65507;48.454;-2.058;2023-11-22T11:15:55;13.00;80.80
76613;DHT22;65507;48.454;-2.058;2023-11-22T11:18:21;13.00;80.80
76613;DHT22;65507;48.454;-2.058;2023-11-22T11:23:18;13.00;80.70
76613;DHT22;65507;48.454;-2.058;2023-11-22T11:25:49;13.00;80.70
76613;DHT22;65507;48.454;-2.058;2023-11-22T11:28:14;13.00;80.60
76613;DHT22;65507;48.454;-2.058;2023-11-22T11:30:44;13.00;80.60
76613;DHT22;65507;48.454;-2.058;2023-11-22T11:33:14;13.00;80.70
76613;DHT22;65507;48.454;-2.058;2023-11-22T11:35:49;13.00;80.50
76613;DHT22;65507;48.454;-2.058;2023-11-22T11:38:19;13.00;80.40
76613;DHT22;65507;48.454;-2.058;2023-11-22T11:40:49;13.00;80.20
76613;DHT22;65507;48.454;-2.058;2023-11-22T11:43:15;13.10;80.10
76613;DHT22;65507;48.454;-2.058;2023-11-22T11:45:45;13.10;79.90
76613;DHT22;65507;48.454;-2.058;2023-11-22T11:48:16;13.20;79.80
76613;DHT22;65507;48.454;-2.058;2023-11-22T11:50:42;13.20;79.80
76613;DHT22;65507;48.454;-2.058;2023-11-22T11:53:11;13.30;79.70
76613;DHT22;65507;48.454;-2.058;2023-11-22T11:55:37;13.30;79.50
76613;DHT22;65507;48.454;-2.058;2023-11-22T11:58:06;13.40;79.40
76613;DHT22;65507;48.454;-2.058;2023-11-22T12:00:38;13.30;79.10
76613;DHT22;65507;48.454;-2.058;2023-11-22T12:03:09;13.20;79.10
76613;DHT22;65507;48.454;-2.058;2023-11-22T12:05:38;13.10;79.40
76613;DHT22;65507;48.454;-2.058;2023-11-22T12:08:04;13.00;79.50
76613;DHT22;65507;48.454;-2.058;2023-11-22T12:10:31;13.10;79.50
76613;DHT22;65507;48.454;-2.058;2023-11-22T12:12:57;13.10;79.40
76613;DHT22;65507;48.454;-2.058;2023-11-22T12:15:24;13.20;79.10
76613;DHT22;65507;48.454;-2.058;2023-11-22T12:17:50;13.30;79.00
76613;DHT22;65507;48.454;-2.058;2023-11-22T12:20:17;13.30;78.70
76613;DHT22;65507;48.454;-2.058;2023-11-22T12:22:47;13.40;78.50
76613;DHT22;65507;48.454;-2.058;2023-11-22T12:25:13;13.50;78.40
76613;DHT22;65507;48.454;-2.058;2023-11-22T12:27:43;13.50;78.20
76613;DHT22;65507;48.454;-2.058;2023-11-22T12:30:28;13.50;78.10
76613;DHT22;65507;48.454;-2.058;2023-11-22T12:32:55;13.60;78.00
76613;DHT22;65507;48.454;-2.058;2023-11-22T12:35:25;13.60;78.10
76613;DHT22;65507;48.454;-2.058;2023-11-22T12:37:51;13.70;77.80
76613;DHT22;65507;48.454;-2.058;2023-11-22T12:40:20;13.60;77.80
76613;DHT22;65507;48.454;-2.058;2023-11-22T12:42:50;13.60;77.70
76613;DHT22;65507;48.454;-2.058;2023-11-22T12:45:23;13.60;77.50
76613;DHT22;65507;48.454;-2.058;2023-11-22T12:47:51;13.60;77.60
76613;DHT22;65507;48.454;-2.058;2023-11-22T12:50:34;13.60;77.60
76613;DHT22;65507;48.454;-2.058;2023-11-22T12:53:14;13.60;77.50
76613;DHT22;65507;48.454;-2.058;2023-11-22T12:55:47;13.50;77.60
76613;DHT22;65507;48.454;-2.058;2023-11-22T12:58:17;13.40;77.80
76613;DHT22;65507;48.454;-2.058;2023-11-22T13:00:44;13.40;77.80
76613;DHT22;65507;48.454;-2.058;2023-11-22T13:03:11;13.40;77.80
76613;DHT22;65507;48.454;-2.058;2023-11-22T13:05:38;13.30;77.70
76613;DHT22;65507;48.454;-2.058;2023-11-22T13:08:04;13.30;77.90
76613;DHT22;65507;48.454;-2.058;2023-11-22T13:10:30;13.30;78.00
76613;DHT22;65507;48.454;-2.058;2023-11-22T13:12:57;13.30;77.70
76613;DHT22;65507;48.454;-2.058;2023-11-22T13:15:23;13.30;77.90
76613;DHT22;65507;48.454;-2.058;2023-11-22T13:17:50;13.30;77.90
76613;DHT22;65507;48.454;-2.058;2023-11-22T13:20:16;13.30;77.80
76613;DHT22;65507;48.454;-2.058;2023-11-22T13:22:45;13.30;77.70
76613;DHT22;65507;48.454;-2.058;2023-11-22T13:25:12;13.30;77.70
76613;DHT22;65507;48.454;-2.058;2023-11-22T13:27:45;13.30;77.50
76613;DHT22;65507;48.454;-2.058;2023-11-22T13:30:12;13.30;77.50
76613;DHT22;65507;48.454;-2.058;2023-11-22T13:32:37;13.40;77.70
76613;DHT22;65507;48.454;-2.058;2023-11-22T13:35:07;13.30;77.80
76613;DHT22;65507;48.454;-2.058;2023-11-22T13:37:39;13.30;77.80
76613;DHT22;65507;48.454;-2.058;2023-11-22T13:40:11;13.30;77.50
76613;DHT22;65507;48.454;-2.058;2023-11-22T13:42:49;13.30;77.50
76613;DHT22;65507;48.454;-2.058;2023-11-22T13:45:16;13.30;77.50
76613;DHT22;65507;48.454;-2.058;2023-11-22T13:47:47;13.20;77.50
76613;DHT22;65507;48.454;-2.058;2023-11-22T13:50:14;13.20;77.50
76613;DHT22;65507;48.454;-2.058;2023-11-22T13:52:44;13.20;77.40
76613;DHT22;65507;48.454;-2.058;2023-11-22T13:55:11;13.20;77.40
76613;DHT22;65507;48.454;-2.058;2023-11-22T13:57:38;13.20;77.50
76613;DHT22;65507;48.454;-2.058;2023-11-22T14:00:08;13.30;77.60
76613;DHT22;65507;48.454;-2.058;2023-11-22T14:02:51;13.40;77.40
76613;DHT22;65507;48.454;-2.058;2023-11-22T14:05:17;13.40;77.30
76613;DHT22;65507;48.454;-2.058;2023-11-22T14:07:43;13.40;77.10
76613;DHT22;65507;48.454;-2.058;2023-11-22T14:10:10;13.30;77.20
76613;DHT22;65507;48.454;-2.058;2023-11-22T14:12:37;13.20;77.40
76613;DHT22;65507;48.454;-2.058;2023-11-22T14:15:03;13.10;77.50
76613;DHT22;65507;48.454;-2.058;2023-11-22T14:17:32;13.00;77.70
76613;DHT22;65507;48.454;-2.058;2023-11-22T14:19:58;13.00;77.80
76613;DHT22;65507;48.454;-2.058;2023-11-22T14:22:24;13.00;77.80
76613;DHT22;65507;48.454;-2.058;2023-11-22T14:24:50;12.90;77.70
76613;DHT22;65507;48.454;-2.058;2023-11-22T14:27:19;12.90;77.70
76613;DHT22;65507;48.454;-2.058;2023-11-22T14:29:46;12.90;77.80
76613;DHT22;65507;48.454;-2.058;2023-11-22T14:32:14;12.90;77.80
76613;DHT22;65507;48.454;-2.058;2023-11-22T14:34:40;12.80;77.60
76613;DHT22;65507;48.454;-2.058;2023-11-22T14:37:09;12.80;77.60
76613;DHT22;65507;48.454;-2.058;2023-11-22T14:39:35;12.80;77.60
76613;DHT22;65507;48.454;-2.058;2023-11-22T14:42:01;12.80;77.70
76613;DHT22;65507;48.454;-2.058;2023-11-22T14:44:27;12.80;77.70
76613;DHT22;65507;48.454;-2.058;2023-11-22T14:46:52;12.70;77.70
76613;DHT22;65507;48.454;-2.058;2023-11-22T14:49:19;12.70;77.50
76613;DHT22;65507;48.454;-2.058;2023-11-22T14:51:46;12.60;77.60
76613;DHT22;65507;48.454;-2.058;2023-11-22T14:54:12;12.60;77.60
76613;DHT22;65507;48.454;-2.058;2023-11-22T14:56:37;12.60;77.80
76613;DHT22;65507;48.454;-2.058;2023-11-22T14:59:05;12.50;77.80
76613;DHT22;65507;48.454;-2.058;2023-11-22T15:01:31;12.50;77.80
76613;DHT22;65507;48.454;-2.058;2023-11-22T15:03:57;12.50;77.90
76613;DHT22;65507;48.454;-2.058;2023-11-22T15:06:22;12.50;77.80
76613;DHT22;65507;48.454;-2.058;2023-11-22T15:08:48;12.60;77.70
76613;DHT22;65507;48.454;-2.058;2023-11-22T15:11:16;12.60;77.70
76613;DHT22;65507;48.454;-2.058;2023-11-22T15:13:45;12.60;77.70
76613;DHT22;65507;48.454;-2.058;2023-11-22T15:16:11;12.60;78.20
76613;DHT22;65507;48.454;-2.058;2023-11-22T15:18:42;12.50;77.80
76613;DHT22;65507;48.454;-2.058;2023-11-22T15:21:08;12.60;78.00